Time,TemperatureF,DewpointF,PressureIn,WindDirection,WindDirectionDegrees,WindSpeedMPH,WindSpeedGustMPH,Humidity,HourlyPrecipIn,Conditions,Clouds,dailyrainin,SoftwareType,DateUTC
2013-02-28 00:02:00,53.5,15.6,30.13,ENE,63,0.0,4.0,22,0.00,,CLR,0.00,VWS V13.01,2013-02-28 08:02:00,
2013-02-28 00:07:00,53.3,14.4,30.13,ENE,63,0.0,4.0,21,0.00,,CLR,0.00,VWS V13.01,2013-02-28 08:07:00,
2013-02-28 00:12:00,53.4,15.5,30.13,ENE,63,0.0,0.0,22,0.00,,CLR,0.00,VWS V13.01,2013-02-28 08:12:00,
2013-02-28 00:17:00,53.3,16.5,30.13,ENE,63,0.0,1.0,23,0.00,,CLR,0.00,VWS V13.01,2013-02-28 08:17:00,
2013-02-28 00:23:00,53.2,17.4,30.13,ENE,63,0.0,1.0,24,0.00,,CLR,0.00,VWS V13.01,2013-02-28 08:23:00,
2013-02-28 00:28:00,52.9,16.1,30.13,ENE,63,0.0,1.0,23,0.00,,CLR,0.00,VWS V13.01,2013-02-28 08:28:00,
2013-02-28 00:33:00,53.0,15.2,30.14,ENE,63,0.0,2.0,22,0.00,,CLR,0.00,VWS V13.01,2013-02-28 08:33:00,
2013-02-28 00:38:00,53.3,16.5,30.14,ENE,63,0.0,0.0,23,0.00,,CLR,0.00,VWS V13.01,2013-02-28 08:38:00,
2013-02-28 00:43:00,53.6,14.6,30.14,ENE,63,0.0,1.0,21,0.00,,CLR,0.00,VWS V13.01,2013-02-28 08:43:00,
2013-02-28 00:48:00,53.7,15.8,30.14,ENE,63,0.0,1.0,22,0.00,,CLR,0.00,VWS V13.01,2013-02-28 08:48:00,
2013-02-28 00:53:00,53.6,16.7,30.14,ENE,63,0.0,1.0,23,0.00,,CLR,0.00,VWS V13.01,2013-02-28 08:53:00,
2013-02-28 00:58:00,53.2,15.4,30.14,ENE,63,0.0,1.0,22,0.00,,CLR,0.00,VWS V13.01,2013-02-28 08:58:00,
2013-02-28 01:03:00,53.3,14.4,30.14,ENE,63,0.0,1.0,21,0.00,,CLR,0.00,VWS V13.01,2013-02-28 09:03:00,
2013-02-28 01:08:00,53.7,14.7,30.14,ENE,63,0.0,0.0,21,0.00,,CLR,0.00,VWS V13.01,2013-02-28 09:08:00,
2013-02-28 01:13:00,53.9,15.9,30.14,ENE,63,0.0,1.0,22,0.00,,CLR,0.00,VWS V13.01,2013-02-28 09:13:00,
2013-02-28 01:18:00,53.7,16.8,30.14,ENE,63,0.0,2.0,23,0.00,,CLR,0.00,VWS V13.01,2013-02-28 09:18:00,
2013-02-28 01:23:00,53.3,16.5,30.14,ENE,63,1.0,2.0,23,0.00,,CLR,0.00,VWS V13.01,2013-02-28 09:23:00,
2013-02-28 01:28:00,53.1,16.3,30.14,ENE,63,0.0,2.0,23,0.00,,CLR,0.00,VWS V13.01,2013-02-28 09:28:00,
2013-02-28 01:33:00,53.1,14.2,30.14,ENE,78,0.0,2.0,21,0.00,,CLR,0.00,VWS V13.01,2013-02-28 09:33:00,
2013-02-28 01:38:00,53.3,13.3,30.13,ENE,78,0.0,0.0,20,0.00,,CLR,0.00,VWS V13.01,2013-02-28 09:38:00,
2013-02-28 01:43:00,53.5,13.4,30.13,ENE,78,0.0,2.0,20,0.00,,CLR,0.00,VWS V13.01,2013-02-28 09:43:00,
2013-02-28 01:48:00,53.7,14.7,30.13,ENE,60,0.0,4.0,21,0.00,,CLR,0.00,VWS V13.01,2013-02-28 09:48:00,
2013-02-28 01:53:00,53.4,15.5,30.13,SE,133,0.0,4.0,22,0.00,,CLR,0.00,VWS V13.01,2013-02-28 09:53:00,
2013-02-28 01:58:00,54.2,12.9,30.13,ENE,63,0.0,4.0,19,0.00,,CLR,0.00,VWS V13.01,2013-02-28 09:58:00,
2013-02-28 02:03:00,54.9,12.2,30.13,ENE,63,0.0,4.0,18,0.00,,CLR,0.00,VWS V13.01,2013-02-28 10:03:00,
2013-02-28 02:08:00,55.3,11.2,30.13,ENE,63,0.0,0.0,17,0.00,,CLR,0.00,VWS V13.01,2013-02-28 10:08:00,
2013-02-28 02:13:00,55.8,14.2,30.13,ENE,63,0.0,0.0,19,0.00,,CLR,0.00,VWS V13.01,2013-02-28 10:13:00,
2013-02-28 02:18:00,56.1,11.9,30.13,ENE,69,0.0,2.0,17,0.00,,CLR,0.00,VWS V13.01,2013-02-28 10:18:00,
2013-02-28 02:23:00,56.3,10.7,30.12,ENE,69,0.0,2.0,16,0.00,,CLR,0.00,VWS V13.01,2013-02-28 10:23:00,
2013-02-28 02:28:00,56.1,13.2,30.12,East,90,0.0,2.0,18,0.00,,CLR,0.00,VWS V13.01,2013-02-28 10:28:00,
2013-02-28 02:33:00,56.0,10.5,30.12,SSE,147,0.0,2.0,16,0.00,,CLR,0.00,VWS V13.01,2013-02-28 10:33:00,
2013-02-28 02:38:00,56.7,11.0,30.12,NE,38,5.0,5.0,16,0.00,,CLR,0.00,VWS V13.01,2013-02-28 10:38:00,
2013-02-28 02:43:00,57.8,8.9,30.11,NE,50,0.0,5.0,14,0.00,,CLR,0.00,VWS V13.01,2013-02-28 10:43:00,
2013-02-28 02:48:00,58.2,9.2,30.11,NE,53,0.0,5.0,14,0.00,,CLR,0.00,VWS V13.01,2013-02-28 10:48:00,
2013-02-28 02:53:00,58.4,9.4,30.11,ESE,121,0.0,5.0,14,0.00,,CLR,0.00,VWS V13.01,2013-02-28 10:53:00,
2013-02-28 02:58:00,58.5,9.5,30.11,SSE,157,0.0,5.0,14,0.00,,CLR,0.00,VWS V13.01,2013-02-28 10:58:00,
2013-02-28 03:03:00,58.2,10.8,30.11,WSW,258,0.0,5.0,15,0.00,,CLR,0.00,VWS V13.01,2013-02-28 11:03:00,
2013-02-28 03:08:00,58.2,9.2,30.11,East,96,0.0,4.0,14,0.00,,CLR,0.00,VWS V13.01,2013-02-28 11:08:00,
2013-02-28 03:13:00,58.6,11.1,30.11,SE,140,2.0,4.0,15,0.00,,CLR,0.00,VWS V13.01,2013-02-28 11:13:00,
2013-02-28 03:18:00,58.6,9.6,30.11,NNE,24,2.0,5.0,14,0.00,,CLR,0.00,VWS V13.01,2013-02-28 11:18:00,
2013-02-28 03:23:00,58.9,9.8,30.11,NE,42,1.0,5.0,14,0.00,,CLR,0.00,VWS V13.01,2013-02-28 11:23:00,
2013-02-28 03:28:00,59.4,6.8,30.11,East,97,0.0,5.0,12,0.00,,CLR,0.00,VWS V13.01,2013-02-28 11:28:00,
2013-02-28 03:33:00,60.2,7.4,30.11,ENE,65,0.0,5.0,12,0.00,,CLR,0.00,VWS V13.01,2013-02-28 11:33:00,
2013-02-28 03:38:00,60.3,7.5,30.11,ENE,76,0.0,2.0,12,0.00,,CLR,0.00,VWS V13.01,2013-02-28 11:38:00,
2013-02-28 03:43:00,60.1,10.8,30.11,ENE,76,0.0,2.0,14,0.00,,CLR,0.00,VWS V13.01,2013-02-28 11:43:00,
2013-02-28 03:48:00,59.5,11.8,30.11,East,101,1.0,2.0,15,0.00,,CLR,0.00,VWS V13.01,2013-02-28 11:48:00,
2013-02-28 03:53:00,59.0,12.9,30.11,SSE,156,0.0,2.0,16,0.00,,CLR,0.00,VWS V13.01,2013-02-28 11:53:00,
2013-02-28 03:58:00,58.3,10.9,30.11,SSE,156,0.0,2.0,15,0.00,,CLR,0.00,VWS V13.01,2013-02-28 11:58:00,
2013-02-28 04:03:00,57.7,14.5,30.11,SSE,156,0.0,2.0,18,0.00,,CLR,0.00,VWS V13.01,2013-02-28 12:03:00,
2013-02-28 04:08:00,57.1,9.9,30.11,SSE,156,0.0,0.0,15,0.00,,CLR,0.00,VWS V13.01,2013-02-28 12:08:00,
2013-02-28 04:13:00,56.9,11.2,30.11,East,95,0.0,1.0,16,0.00,,CLR,0.00,VWS V13.01,2013-02-28 12:13:00,
2013-02-28 04:18:00,56.8,11.1,30.11,ENE,58,0.0,3.0,16,0.00,,CLR,0.00,VWS V13.01,2013-02-28 12:18:00,
2013-02-28 04:23:00,56.5,10.9,30.12,ENE,58,0.0,3.0,16,0.00,,CLR,0.00,VWS V13.01,2013-02-28 12:23:00,
2013-02-28 04:28:00,56.3,12.1,30.12,ENE,58,0.0,3.0,17,0.00,,CLR,0.00,VWS V13.01,2013-02-28 12:28:00,
2013-02-28 04:33:00,56.2,12.0,30.12,North,5,0.0,3.0,17,0.00,,CLR,0.00,VWS V13.01,2013-02-28 12:33:00,
2013-02-28 04:38:00,56.3,10.7,30.12,North,5,0.0,0.0,16,0.00,,CLR,0.00,VWS V13.01,2013-02-28 12:38:00,
2013-02-28 04:43:00,56.4,10.8,30.12,NE,50,2.0,3.0,16,0.00,,CLR,0.00,VWS V13.01,2013-02-28 12:43:00,
2013-02-28 04:48:00,57.3,11.5,30.12,NNE,27,0.0,4.0,16,0.00,,CLR,0.00,VWS V13.01,2013-02-28 12:48:00,
2013-02-28 04:53:00,57.5,11.7,30.12,NNE,27,0.0,4.0,16,0.00,,CLR,0.00,VWS V13.01,2013-02-28 12:53:00,
2013-02-28 04:59:00,57.6,10.3,30.13,NE,48,1.0,7.0,15,0.00,,CLR,0.00,VWS V13.01,2013-02-28 12:59:00,
2013-02-28 05:04:00,58.0,10.6,30.13,NW,307,0.0,7.0,15,0.00,,CLR,0.00,VWS V13.01,2013-02-28 13:04:00,
2013-02-28 05:09:00,58.1,12.2,30.12,NW,311,0.0,0.0,16,0.00,,CLR,0.00,VWS V13.01,2013-02-28 13:09:00,
2013-02-28 05:14:00,57.8,17.0,30.13,NW,310,0.0,1.0,20,0.00,,CLR,0.00,VWS V13.01,2013-02-28 13:14:00,
2013-02-28 05:19:00,57.3,24.5,30.13,NW,310,0.0,1.0,28,0.00,,CLR,0.00,VWS V13.01,2013-02-28 13:19:00,
2013-02-28 05:24:00,56.6,21.2,30.13,NW,310,0.0,1.0,25,0.00,,CLR,0.00,VWS V13.01,2013-02-28 13:24:00,
2013-02-28 05:29:00,56.1,15.6,30.13,NW,310,0.0,1.0,20,0.00,,CLR,0.00,VWS V13.01,2013-02-28 13:29:00,
2013-02-28 05:34:00,56.1,13.2,30.13,ESE,117,0.0,2.0,18,0.00,,CLR,0.00,VWS V13.01,2013-02-28 13:34:00,
2013-02-28 05:39:00,56.2,13.3,30.13,ESE,105,0.0,0.0,18,0.00,,CLR,0.00,VWS V13.01,2013-02-28 13:39:00,
2013-02-28 05:44:00,56.1,11.9,30.14,SSE,151,0.0,1.0,17,0.00,,CLR,0.00,VWS V13.01,2013-02-28 13:44:00,
2013-02-28 05:49:00,55.8,14.2,30.14,SSE,151,0.0,1.0,19,0.00,,CLR,0.00,VWS V13.01,2013-02-28 13:49:00,
2013-02-28 05:54:00,55.5,13.9,30.14,West,270,0.0,2.0,19,0.00,,CLR,0.00,VWS V13.01,2013-02-28 13:54:00,
2013-02-28 05:59:00,55.2,13.7,30.14,West,270,0.0,2.0,19,0.00,,CLR,0.00,VWS V13.01,2013-02-28 13:59:00,
2013-02-28 06:04:00,54.7,15.6,30.14,WSW,246,0.0,2.0,21,0.00,,CLR,0.00,VWS V13.01,2013-02-28 14:04:00,
2013-02-28 06:09:00,54.3,11.7,30.14,WSW,246,0.0,0.0,18,0.00,,CLR,0.00,VWS V13.01,2013-02-28 14:09:00,
2013-02-28 06:14:00,54.5,11.9,30.14,WSW,246,0.0,1.0,18,0.00,,CLR,0.00,VWS V13.01,2013-02-28 14:14:00,
2013-02-28 06:19:00,54.7,13.3,30.14,WSW,249,1.0,1.0,19,0.00,,CLR,0.00,VWS V13.01,2013-02-28 14:19:00,
2013-02-28 06:24:00,55.1,14.8,30.15,ENE,78,0.0,3.0,20,0.00,,CLR,0.00,VWS V13.01,2013-02-28 14:24:00,
2013-02-28 06:29:00,54.6,19.5,30.15,East,80,0.0,3.0,25,0.00,,CLR,0.00,VWS V13.01,2013-02-28 14:29:00,
2013-02-28 06:34:00,54.4,15.3,30.15,ESE,117,0.0,3.0,21,0.00,,CLR,0.00,VWS V13.01,2013-02-28 14:34:00,
2013-02-28 06:39:00,54.4,16.4,30.15,NE,55,2.0,3.0,22,0.00,,CLR,0.00,VWS V13.01,2013-02-28 14:39:00,
2013-02-28 06:44:00,54.2,16.2,30.15,NE,56,0.0,3.0,22,0.00,,CLR,0.00,VWS V13.01,2013-02-28 14:44:00,
2013-02-28 06:49:00,54.0,15.0,30.15,ENE,73,2.0,3.0,21,0.00,,CLR,0.00,VWS V13.01,2013-02-28 14:49:00,
2013-02-28 06:54:00,53.7,15.8,30.15,NE,46,0.0,4.0,22,0.00,,CLR,0.00,VWS V13.01,2013-02-28 14:54:00,
2013-02-28 06:59:00,53.3,17.5,30.15,ENE,63,0.0,4.0,24,0.00,,CLR,0.00,VWS V13.01,2013-02-28 14:59:00,
2013-02-28 07:04:00,53.0,16.2,30.15,East,79,0.0,4.0,23,0.00,,CLR,0.00,VWS V13.01,2013-02-28 15:04:00,
2013-02-28 07:09:00,53.5,15.6,30.16,East,79,1.0,2.0,22,0.00,,CLR,0.00,VWS V13.01,2013-02-28 15:09:00,
2013-02-28 07:14:00,54.2,15.1,30.16,NE,53,0.0,3.0,21,0.00,,CLR,0.00,VWS V13.01,2013-02-28 15:14:00,
2013-02-28 07:19:00,54.6,17.6,30.16,East,81,1.0,3.0,23,0.00,,CLR,0.00,VWS V13.01,2013-02-28 15:19:00,
2013-02-28 07:24:00,54.6,17.6,30.16,East,82,0.0,3.0,23,0.00,,CLR,0.00,VWS V13.01,2013-02-28 15:24:00,
2013-02-28 07:29:00,54.8,20.6,30.16,East,82,0.0,3.0,26,0.00,,CLR,0.00,VWS V13.01,2013-02-28 15:29:00,
2013-02-28 07:34:00,54.9,23.3,30.17,NE,49,0.0,4.0,29,0.00,,CLR,0.00,VWS V13.01,2013-02-28 15:34:00,
2013-02-28 07:39:00,55.1,20.9,30.16,East,83,0.0,2.0,26,0.00,,CLR,0.00,VWS V13.01,2013-02-28 15:39:00,
2013-02-28 07:44:00,55.3,21.0,30.17,East,83,0.0,2.0,26,0.00,,CLR,0.00,VWS V13.01,2013-02-28 15:44:00,
2013-02-28 07:49:00,55.7,24.0,30.17,East,83,0.0,2.0,29,0.00,,CLR,0.00,VWS V13.01,2013-02-28 15:49:00,
2013-02-28 07:54:00,56.3,21.9,30.17,East,83,0.0,2.0,26,0.00,,CLR,0.00,VWS V13.01,2013-02-28 15:54:00,
2013-02-28 07:59:00,57.0,20.6,30.17,WNW,284,0.0,2.0,24,0.00,,CLR,0.00,VWS V13.01,2013-02-28 15:59:00,
2013-02-28 08:04:00,59.1,19.2,30.17,NW,317,3.0,5.0,21,0.00,,FEW010,0.00,VWS V13.01,2013-02-28 16:04:00,
2013-02-28 08:09:00,60.3,21.3,30.17,WNW,283,1.0,4.0,22,0.00,,FEW010,0.00,VWS V13.01,2013-02-28 16:09:00,
2013-02-28 08:14:00,60.7,21.7,30.17,WSW,243,2.0,4.0,22,0.00,,FEW010,0.00,VWS V13.01,2013-02-28 16:14:00,
2013-02-28 08:19:00,60.6,21.6,30.17,WNW,286,0.0,4.0,22,0.00,,FEW010,0.00,VWS V13.01,2013-02-28 16:19:00,
2013-02-28 08:24:00,60.7,19.4,30.17,WNW,290,0.0,4.0,20,0.00,,FEW010,0.00,VWS V13.01,2013-02-28 16:24:00,
2013-02-28 08:29:00,61.0,20.8,30.17,NW,316,0.0,4.0,21,0.00,,FEW010,0.00,VWS V13.01,2013-02-28 16:29:00,
2013-02-28 08:34:00,61.5,20.1,30.17,SW,217,0.0,4.0,20,0.00,,FEW010,0.00,VWS V13.01,2013-02-28 16:34:00,
2013-02-28 08:39:00,62.2,22.9,30.17,West,269,2.0,2.0,22,0.00,,FEW010,0.00,VWS V13.01,2013-02-28 16:39:00,
2013-02-28 08:44:00,62.7,24.4,30.17,West,263,0.0,2.0,23,0.00,,FEW010,0.00,VWS V13.01,2013-02-28 16:44:00,
2013-02-28 08:49:00,63.1,23.7,30.17,WNW,285,0.0,2.0,22,0.00,,FEW010,0.00,VWS V13.01,2013-02-28 16:49:00,
2013-02-28 08:55:00,63.4,25.0,30.17,West,277,1.0,3.0,23,0.00,,FEW010,0.00,VWS V13.01,2013-02-28 16:55:00,
2013-02-28 09:00:00,63.8,22.0,30.18,WNW,294,0.0,3.0,20,0.00,,FEW010,0.00,VWS V13.01,2013-02-28 17:00:00,
2013-02-28 09:05:00,64.2,21.1,30.18,West,277,0.0,3.0,19,0.00,,FEW010,0.00,VWS V13.01,2013-02-28 17:05:00,
2013-02-28 09:10:00,64.7,20.2,30.18,WNW,301,4.0,4.0,18,0.00,,FEW010,0.00,VWS V13.01,2013-02-28 17:10:00,
2013-02-28 09:15:00,65.2,19.3,30.18,West,276,1.0,4.0,17,0.00,,FEW010,0.00,VWS V13.01,2013-02-28 17:15:00,
2013-02-28 09:20:00,65.6,18.2,30.18,WNW,296,0.0,4.0,16,0.00,,FEW010,0.00,VWS V13.01,2013-02-28 17:20:00,
2013-02-28 09:25:00,66.1,17.1,30.18,South,191,0.0,4.0,15,0.00,,FEW010,0.00,VWS V13.01,2013-02-28 17:25:00,
2013-02-28 09:30:00,66.6,17.5,30.18,West,274,2.0,4.0,15,0.00,,FEW010,0.00,VWS V13.01,2013-02-28 17:30:00,
2013-02-28 09:35:00,67.0,22.1,30.18,West,268,1.0,4.0,18,0.00,,FEW010,0.00,VWS V13.01,2013-02-28 17:35:00,
2013-02-28 09:40:00,67.4,19.7,30.18,West,265,1.0,3.0,16,0.00,,FEW010,0.00,VWS V13.01,2013-02-28 17:40:00,
2013-02-28 09:45:00,67.9,20.1,30.18,WNW,296,0.0,4.0,16,0.00,,FEW010,0.00,VWS V13.01,2013-02-28 17:45:00,
2013-02-28 09:50:00,68.4,23.3,30.18,West,279,0.0,4.0,18,0.00,,FEW010,0.00,VWS V13.01,2013-02-28 17:50:00,
2013-02-28 09:55:00,68.9,20.9,30.18,WSW,245,0.0,4.0,16,0.00,,FEW010,0.00,VWS V13.01,2013-02-28 17:55:00,
2013-02-28 10:00:00,69.4,21.3,30.18,WSW,258,0.0,4.0,16,0.00,,FEW010,0.00,VWS V13.01,2013-02-28 18:00:00,
2013-02-28 10:05:00,69.9,20.2,30.18,NW,311,0.0,4.0,15,0.00,,FEW012,0.00,VWS V13.01,2013-02-28 18:05:00,
2013-02-28 10:10:00,70.4,20.6,30.18,NW,304,0.0,1.0,15,0.00,,FEW012,0.00,VWS V13.01,2013-02-28 18:10:00,
2013-02-28 10:15:00,70.5,17.3,30.18,ENE,71,0.0,3.0,13,0.00,,FEW012,0.00,VWS V13.01,2013-02-28 18:15:00,
2013-02-28 10:20:00,70.7,19.2,30.18,West,275,2.0,5.0,14,0.00,,FEW012,0.00,VWS V13.01,2013-02-28 18:20:00,
2013-02-28 10:25:00,71.0,17.7,30.18,WNW,295,1.0,5.0,13,0.00,,FEW012,0.00,VWS V13.01,2013-02-28 18:25:00,
2013-02-28 10:30:00,71.2,19.6,30.18,WNW,292,3.0,5.0,14,0.00,,FEW012,0.00,VWS V13.01,2013-02-28 18:30:00,
2013-02-28 10:35:00,71.8,20.1,30.18,WSW,248,2.0,5.0,14,0.00,,FEW012,0.00,VWS V13.01,2013-02-28 18:35:00,
2013-02-28 10:40:00,72.3,18.7,30.18,ENE,63,0.0,3.0,13,0.00,,FEW012,0.00,VWS V13.01,2013-02-28 18:40:00,
2013-02-28 10:45:00,72.8,17.3,30.17,West,276,1.0,3.0,12,0.00,,FEW012,0.00,VWS V13.01,2013-02-28 18:45:00,
2013-02-28 10:50:00,73.3,15.7,30.17,NE,42,0.0,3.0,11,0.00,,FEW012,0.00,VWS V13.01,2013-02-28 18:50:00,
2013-02-28 10:55:00,73.9,20.0,30.17,West,279,0.0,3.0,13,0.00,,FEW012,0.00,VWS V13.01,2013-02-28 18:55:00,
2013-02-28 11:00:00,74.6,20.5,30.17,WSW,238,2.0,3.0,13,0.00,,FEW012,0.00,VWS V13.01,2013-02-28 19:00:00,
2013-02-28 11:05:00,74.9,16.9,30.17,West,261,0.0,5.0,11,0.00,,CLR,0.00,VWS V13.01,2013-02-28 19:05:00,
2013-02-28 11:10:00,74.8,18.8,30.17,West,271,3.0,5.0,12,0.00,,CLR,0.00,VWS V13.01,2013-02-28 19:10:00,
2013-02-28 11:15:00,75.0,19.0,30.17,WNW,294,1.0,5.0,12,0.00,,CLR,0.00,VWS V13.01,2013-02-28 19:15:00,
2013-02-28 11:20:00,75.1,19.1,30.17,WNW,294,2.0,5.0,12,0.00,,CLR,0.00,VWS V13.01,2013-02-28 19:20:00,
2013-02-28 11:25:00,75.3,19.2,30.17,WSW,252,2.0,5.0,12,0.00,,CLR,0.00,VWS V13.01,2013-02-28 19:25:00,
2013-02-28 11:30:00,75.2,21.0,30.18,West,267,2.0,6.0,13,0.00,,CLR,0.00,VWS V13.01,2013-02-28 19:30:00,
2013-02-28 11:35:00,75.5,19.4,30.17,WSW,248,2.0,6.0,12,0.00,,CLR,0.00,VWS V13.01,2013-02-28 19:35:00,
2013-02-28 11:40:00,75.8,21.5,30.16,West,279,4.0,4.0,13,0.00,,CLR,0.00,VWS V13.01,2013-02-28 19:40:00,
2013-02-28 11:45:00,76.3,20.0,30.16,WNW,294,0.0,5.0,12,0.00,,CLR,0.00,VWS V13.01,2013-02-28 19:45:00,
2013-02-28 11:51:00,76.9,20.5,30.16,NW,313,2.0,5.0,12,0.00,,CLR,0.00,VWS V13.01,2013-02-28 19:51:00,
2013-02-28 11:56:00,76.9,20.5,30.15,West,281,3.0,5.0,12,0.00,,CLR,0.00,VWS V13.01,2013-02-28 19:56:00,
2013-02-28 12:01:00,76.7,20.3,30.15,WNW,282,2.0,6.0,12,0.00,,CLR,0.00,VWS V13.01,2013-02-28 20:01:00,
2013-02-28 12:06:00,76.6,20.2,30.15,SSW,210,2.0,6.0,12,0.00,,CLR,0.00,VWS V13.01,2013-02-28 20:06:00,
2013-02-28 12:11:00,76.5,20.2,30.15,WNW,293,2.0,6.0,12,0.00,,CLR,0.00,VWS V13.01,2013-02-28 20:11:00,
2013-02-28 12:16:00,76.8,20.4,30.14,West,277,1.0,6.0,12,0.00,,CLR,0.00,VWS V13.01,2013-02-28 20:16:00,
2013-02-28 12:21:00,77.2,18.7,30.14,West,274,0.0,6.0,11,0.00,,CLR,0.00,VWS V13.01,2013-02-28 20:21:00,
2013-02-28 12:26:00,77.1,18.6,30.14,WNW,290,4.0,6.0,11,0.00,,CLR,0.00,VWS V13.01,2013-02-28 20:26:00,
2013-02-28 12:31:00,77.2,18.7,30.14,West,268,2.0,6.0,11,0.00,,CLR,0.00,VWS V13.01,2013-02-28 20:31:00,
2013-02-28 12:36:00,77.5,16.7,30.14,West,265,4.0,6.0,10,0.00,,CLR,0.00,VWS V13.01,2013-02-28 20:36:00,
2013-02-28 12:41:00,77.5,18.9,30.14,WSW,250,2.0,4.0,11,0.00,,CLR,0.00,VWS V13.01,2013-02-28 20:41:00,
2013-02-28 12:46:00,77.6,16.8,30.13,ENE,73,1.0,4.0,10,0.00,,CLR,0.00,VWS V13.01,2013-02-28 20:46:00,
2013-02-28 12:51:00,77.5,18.9,30.13,West,259,1.0,4.0,11,0.00,,CLR,0.00,VWS V13.01,2013-02-28 20:51:00,
2013-02-28 12:56:00,77.6,19.0,30.13,NW,316,4.0,8.0,11,0.00,,CLR,0.00,VWS V13.01,2013-02-28 20:56:00,
2013-02-28 13:01:00,77.8,23.1,30.13,West,277,0.0,8.0,13,0.00,,CLR,0.00,VWS V13.01,2013-02-28 21:01:00,
2013-02-28 13:06:00,78.0,19.3,30.13,ESE,103,1.0,8.0,11,0.00,,CLR,0.00,VWS V13.01,2013-02-28 21:06:00,
2013-02-28 13:11:00,78.1,19.4,30.12,WNW,286,3.0,6.0,11,0.00,,CLR,0.00,VWS V13.01,2013-02-28 21:11:00,
2013-02-28 13:16:00,78.1,17.1,30.12,WSW,257,0.0,6.0,10,0.00,,CLR,0.00,VWS V13.01,2013-02-28 21:16:00,
2013-02-28 13:21:00,78.0,17.1,30.12,NE,41,0.0,6.0,10,0.00,,CLR,0.00,VWS V13.01,2013-02-28 21:21:00,
2013-02-28 13:26:00,78.5,19.7,30.12,NNE,21,0.0,6.0,11,0.00,,CLR,0.00,VWS V13.01,2013-02-28 21:26:00,
2013-02-28 13:31:00,79.1,17.9,30.12,WSW,239,1.0,6.0,10,0.00,,CLR,0.00,VWS V13.01,2013-02-28 21:31:00,
2013-02-28 13:36:00,79.1,20.1,30.12,West,265,5.0,6.0,11,0.00,,CLR,0.00,VWS V13.01,2013-02-28 21:36:00,
2013-02-28 13:41:00,78.4,19.6,30.11,West,259,2.0,8.0,11,0.00,,CLR,0.00,VWS V13.01,2013-02-28 21:41:00,
2013-02-28 13:46:00,78.4,19.6,30.12,WSW,252,1.0,8.0,11,0.00,,CLR,0.00,VWS V13.01,2013-02-28 21:46:00,
2013-02-28 13:51:00,78.5,19.7,30.12,WNW,290,0.0,8.0,11,0.00,,CLR,0.00,VWS V13.01,2013-02-28 21:51:00,
2013-02-28 13:56:00,78.9,20.0,30.11,West,265,2.0,8.0,11,0.00,,CLR,0.00,VWS V13.01,2013-02-28 21:56:00,
2013-02-28 14:01:00,78.9,20.0,30.11,SW,226,1.0,10.0,11,0.00,,CLR,0.00,VWS V13.01,2013-02-28 22:01:00,
2013-02-28 14:06:00,78.5,23.6,30.11,WNW,284,5.0,10.0,13,0.00,,CLR,0.00,VWS V13.01,2013-02-28 22:06:00,
2013-02-28 14:11:00,78.2,25.1,30.11,WSW,256,1.0,8.0,14,0.00,,CLR,0.00,VWS V13.01,2013-02-28 22:11:00,
2013-02-28 14:16:00,78.1,21.4,30.11,WSW,256,2.0,9.0,12,0.00,,CLR,0.00,VWS V13.01,2013-02-28 22:16:00,
2013-02-28 14:21:00,78.1,23.3,30.11,West,270,1.0,9.0,13,0.00,,CLR,0.00,VWS V13.01,2013-02-28 22:21:00,
2013-02-28 14:26:00,77.7,21.1,30.11,WSW,250,1.0,9.0,12,0.00,,CLR,0.00,VWS V13.01,2013-02-28 22:26:00,
2013-02-28 14:31:00,77.5,20.9,30.12,West,281,6.0,9.0,12,0.00,,CLR,0.00,VWS V13.01,2013-02-28 22:31:00,
2013-02-28 14:36:00,77.4,20.9,30.11,East,96,3.0,9.0,12,0.00,,CLR,0.00,VWS V13.01,2013-02-28 22:36:00,
2013-02-28 14:41:00,77.2,22.6,30.11,West,263,2.0,7.0,13,0.00,,CLR,0.00,VWS V13.01,2013-02-28 22:41:00,
2013-02-28 14:46:00,77.0,22.4,30.11,West,267,3.0,8.0,13,0.00,,CLR,0.00,VWS V13.01,2013-02-28 22:46:00,
2013-02-28 14:51:00,76.9,24.1,30.11,WSW,245,0.0,8.0,14,0.00,,CLR,0.00,VWS V13.01,2013-02-28 22:51:00,
2013-02-28 14:56:00,77.1,24.3,30.11,SW,227,0.0,8.0,14,0.00,,CLR,0.00,VWS V13.01,2013-02-28 22:56:00,
2013-02-28 15:01:00,77.4,24.5,30.11,SW,225,2.0,8.0,14,0.00,,CLR,0.00,VWS V13.01,2013-02-28 23:01:00,
2013-02-28 15:06:00,77.4,22.8,30.12,NW,307,1.0,8.0,13,0.00,,CLR,0.00,VWS V13.01,2013-02-28 23:06:00,
2013-02-28 15:11:00,77.4,26.2,30.12,West,267,2.0,4.0,15,0.00,,CLR,0.00,VWS V13.01,2013-02-28 23:11:00,
2013-02-28 15:16:00,77.1,24.3,30.11,West,280,1.0,5.0,14,0.00,,CLR,0.00,VWS V13.01,2013-02-28 23:16:00,
2013-02-28 15:21:00,77.1,24.3,30.11,West,277,2.0,6.0,14,0.00,,CLR,0.00,VWS V13.01,2013-02-28 23:21:00,
2013-02-28 15:26:00,77.1,22.5,30.11,NW,308,3.0,6.0,13,0.00,,CLR,0.00,VWS V13.01,2013-02-28 23:26:00,
2013-02-28 15:31:00,77.1,20.6,30.11,WNW,302,0.0,6.0,12,0.00,,CLR,0.00,VWS V13.01,2013-02-28 23:31:00,
2013-02-28 15:36:00,77.1,20.6,30.11,NW,309,3.0,6.0,12,0.00,,CLR,0.00,VWS V13.01,2013-02-28 23:36:00,
2013-02-28 15:41:00,77.1,22.5,30.11,WNW,297,2.0,5.0,13,0.00,,CLR,0.00,VWS V13.01,2013-02-28 23:41:00,
2013-02-28 15:46:00,76.9,22.4,30.12,SW,236,0.0,5.0,13,0.00,,CLR,0.00,VWS V13.01,2013-02-28 23:46:00,
2013-02-28 15:51:00,76.6,22.1,30.12,WNW,287,0.0,5.0,13,0.00,,CLR,0.00,VWS V13.01,2013-02-28 23:51:00,
2013-02-28 15:56:00,76.5,23.8,30.12,NW,307,2.0,5.0,14,0.00,,CLR,0.00,VWS V13.01,2013-02-28 23:56:00,
2013-02-28 16:01:00,76.5,23.8,30.12,WNW,298,2.0,5.0,14,0.00,,CLR,0.00,VWS V13.01,2013-03-01 00:01:00,
2013-02-28 16:07:00,76.1,23.5,30.12,West,271,2.0,6.0,14,0.00,,CLR,0.00,VWS V13.01,2013-03-01 00:07:00,
2013-02-28 16:12:00,76.0,21.6,30.11,WSW,252,1.0,3.0,13,0.00,,CLR,0.00,VWS V13.01,2013-03-01 00:12:00,
2013-02-28 16:17:00,75.8,23.2,30.11,WNW,290,0.0,4.0,14,0.00,,CLR,0.00,VWS V13.01,2013-03-01 00:17:00,
2013-02-28 16:22:00,75.9,23.3,30.11,SW,229,0.0,4.0,14,0.00,,CLR,0.00,VWS V13.01,2013-03-01 00:22:00,
2013-02-28 16:27:00,75.5,21.3,30.11,NW,312,0.0,5.0,13,0.00,,CLR,0.00,VWS V13.01,2013-03-01 00:27:00,
2013-02-28 16:32:00,75.1,22.7,30.11,West,279,3.0,5.0,14,0.00,,CLR,0.00,VWS V13.01,2013-03-01 00:32:00,
2013-02-28 16:37:00,74.7,22.4,30.11,NW,315,4.0,5.0,14,0.00,,CLR,0.00,VWS V13.01,2013-03-01 00:37:00,
2013-02-28 16:42:00,74.2,22.0,30.11,SSW,209,0.0,6.0,14,0.00,,CLR,0.00,VWS V13.01,2013-03-01 00:42:00,
2013-02-28 16:47:00,73.7,24.8,30.11,WSW,247,2.0,7.0,16,0.00,,CLR,0.00,VWS V13.01,2013-03-01 00:47:00,
2013-02-28 16:52:00,73.3,24.4,30.12,WNW,284,0.0,7.0,16,0.00,,CLR,0.00,VWS V13.01,2013-03-01 00:52:00,
2013-02-28 16:57:00,72.8,22.5,30.12,WNW,292,1.0,7.0,15,0.00,,CLR,0.00,VWS V13.01,2013-03-01 00:57:00,
2013-02-28 17:02:00,72.2,23.5,30.12,WNW,302,1.0,7.0,16,0.00,,CLR,0.00,VWS V13.01,2013-03-01 01:02:00,
2013-02-28 17:07:00,71.7,24.6,30.12,SW,217,0.0,7.0,17,0.00,,CLR,0.00,VWS V13.01,2013-03-01 01:07:00,
2013-02-28 17:12:00,71.1,22.7,30.13,WNW,298,0.0,4.0,16,0.00,,CLR,0.00,VWS V13.01,2013-03-01 01:12:00,
2013-02-28 17:17:00,70.5,23.6,30.13,WSW,257,1.0,5.0,17,0.00,,CLR,0.00,VWS V13.01,2013-03-01 01:17:00,
2013-02-28 17:22:00,70.1,23.3,30.13,NW,304,0.0,5.0,17,0.00,,CLR,0.00,VWS V13.01,2013-03-01 01:22:00,
2013-02-28 17:27:00,69.7,23.0,30.14,WNW,299,0.0,5.0,17,0.00,,CLR,0.00,VWS V13.01,2013-03-01 01:27:00,
2013-02-28 17:32:00,69.3,26.5,30.14,WNW,286,1.0,5.0,20,0.00,,CLR,0.00,VWS V13.01,2013-03-01 01:32:00,
2013-02-28 17:37:00,68.9,25.0,30.14,WNW,286,0.0,5.0,19,0.00,,CLR,0.00,VWS V13.01,2013-03-01 01:37:00,
2013-02-28 17:42:00,68.5,25.9,30.14,WNW,286,0.0,2.0,20,0.00,,CLR,0.00,VWS V13.01,2013-03-01 01:42:00,
2013-02-28 17:47:00,68.1,24.3,30.14,WNW,286,0.0,2.0,19,0.00,,CLR,0.00,VWS V13.01,2013-03-01 01:47:00,
2013-02-28 17:52:00,67.8,25.3,30.14,WNW,286,0.0,2.0,20,0.00,,CLR,0.00,VWS V13.01,2013-03-01 01:52:00,
2013-02-28 17:57:00,67.5,25.0,30.14,WNW,286,0.0,2.0,20,0.00,,CLR,0.00,VWS V13.01,2013-03-01 01:57:00,
2013-02-28 18:02:00,67.2,24.8,30.14,WNW,286,0.0,2.0,20,0.00,,CLR,0.00,VWS V13.01,2013-03-01 02:02:00,
2013-02-28 18:07:00,66.8,25.6,30.15,NNW,332,0.0,2.0,21,0.00,,CLR,0.00,VWS V13.01,2013-03-01 02:07:00,
2013-02-28 18:12:00,66.2,26.3,30.15,NNW,333,0.0,1.0,22,0.00,,CLR,0.00,VWS V13.01,2013-03-01 02:12:00,
2013-02-28 18:17:00,65.2,25.4,30.15,East,92,0.0,2.0,22,0.00,,CLR,0.00,VWS V13.01,2013-03-01 02:17:00,
2013-02-28 18:22:00,64.4,26.9,30.15,East,92,0.0,2.0,24,0.00,,CLR,0.00,VWS V13.01,2013-03-01 02:22:00,
2013-02-28 18:27:00,63.9,29.3,30.15,East,92,0.0,2.0,27,0.00,,CLR,0.00,VWS V13.01,2013-03-01 02:27:00,
2013-02-28 18:32:00,63.4,28.9,30.15,East,92,0.0,2.0,27,0.00,,CLR,0.00,VWS V13.01,2013-03-01 02:32:00,
2013-02-28 18:37:00,63.1,26.7,30.15,East,92,0.0,2.0,25,0.00,,CLR,0.00,VWS V13.01,2013-03-01 02:37:00,
2013-02-28 18:42:00,63.0,25.7,30.15,East,92,0.0,1.0,24,0.00,,CLR,0.00,VWS V13.01,2013-03-01 02:42:00,
2013-02-28 18:47:00,62.9,26.6,30.16,East,84,0.0,2.0,25,0.00,,CLR,0.00,VWS V13.01,2013-03-01 02:47:00,
2013-02-28 18:52:00,62.7,27.4,30.16,East,84,0.0,2.0,26,0.00,,CLR,0.00,VWS V13.01,2013-03-01 02:52:00,
2013-02-28 18:57:00,62.4,27.1,30.16,East,84,1.0,2.0,26,0.00,,CLR,0.00,VWS V13.01,2013-03-01 02:57:00,
2013-02-28 19:02:00,62.2,27.8,30.16,East,84,0.0,2.0,27,0.00,,CLR,0.00,VWS V13.01,2013-03-01 03:02:00,
2013-02-28 19:07:00,62.1,27.8,30.16,East,84,0.0,2.0,27,0.00,,CLR,0.00,VWS V13.01,2013-03-01 03:07:00,
2013-02-28 19:12:00,61.8,28.4,30.16,East,84,0.0,1.0,28,0.00,,CLR,0.00,VWS V13.01,2013-03-01 03:12:00,
2013-02-28 19:17:00,61.4,27.1,30.16,East,84,1.0,1.0,27,0.00,,CLR,0.00,VWS V13.01,2013-03-01 03:17:00,
2013-02-28 19:22:00,61.3,27.9,30.17,East,84,0.0,1.0,28,0.00,,CLR,0.00,VWS V13.01,2013-03-01 03:22:00,
2013-02-28 19:27:00,61.1,28.6,30.17,East,84,0.0,1.0,29,0.00,,CLR,0.00,VWS V13.01,2013-03-01 03:27:00,
2013-02-28 19:32:00,60.8,28.4,30.17,East,84,0.0,1.0,29,0.00,,CLR,0.00,VWS V13.01,2013-03-01 03:32:00,
2013-02-28 19:37:00,60.4,28.9,30.17,East,84,0.0,1.0,30,0.00,,CLR,0.00,VWS V13.01,2013-03-01 03:37:00,
2013-02-28 19:42:00,60.1,27.8,30.17,East,84,0.0,1.0,29,0.00,,CLR,0.00,VWS V13.01,2013-03-01 03:42:00,
2013-02-28 19:47:00,59.8,27.5,30.17,East,84,0.0,1.0,29,0.00,,CLR,0.00,VWS V13.01,2013-03-01 03:47:00,
2013-02-28 19:52:00,59.6,26.5,30.17,East,84,1.0,2.0,28,0.00,,CLR,0.00,VWS V13.01,2013-03-01 03:52:00,
2013-02-28 19:57:00,59.5,27.2,30.17,East,84,1.0,2.0,29,0.00,,CLR,0.00,VWS V13.01,2013-03-01 03:57:00,
2013-02-28 20:02:00,59.3,26.2,30.17,East,82,0.0,2.0,28,0.00,,CLR,0.00,VWS V13.01,2013-03-01 04:02:00,
2013-02-28 20:07:00,59.2,26.1,30.17,ENE,63,0.0,2.0,28,0.00,,CLR,0.00,VWS V13.01,2013-03-01 04:07:00,
2013-02-28 20:13:00,59.3,26.2,30.17,ENE,63,2.0,2.0,28,0.00,,CLR,0.00,VWS V13.01,2013-03-01 04:13:00,
2013-02-28 20:18:00,59.5,26.4,30.17,ENE,62,0.0,2.0,28,0.00,,CLR,0.00,VWS V13.01,2013-03-01 04:18:00,
2013-02-28 20:23:00,59.6,25.6,30.17,ENE,62,0.0,2.0,27,0.00,,CLR,0.00,VWS V13.01,2013-03-01 04:23:00,
2013-02-28 20:28:00,59.6,27.3,30.17,ENE,65,0.0,2.0,29,0.00,,CLR,0.00,VWS V13.01,2013-03-01 04:28:00,
2013-02-28 20:33:00,59.5,26.4,30.17,ENE,65,1.0,2.0,28,0.00,,CLR,0.00,VWS V13.01,2013-03-01 04:33:00,
2013-02-28 20:38:00,59.4,26.3,30.17,ENE,64,0.0,1.0,28,0.00,,CLR,0.00,VWS V13.01,2013-03-01 04:38:00,
2013-02-28 20:43:00,59.0,27.6,30.17,ENE,64,0.0,2.0,30,0.00,,CLR,0.00,VWS V13.01,2013-03-01 04:43:00,
2013-02-28 20:48:00,58.8,25.8,30.17,ENE,72,2.0,3.0,28,0.00,,CLR,0.00,VWS V13.01,2013-03-01 04:48:00,
2013-02-28 20:53:00,58.7,25.7,30.17,ENE,70,2.0,3.0,28,0.00,,CLR,0.00,VWS V13.01,2013-03-01 04:53:00,
2013-02-28 20:58:00,58.7,25.7,30.17,ENE,69,0.0,3.0,28,0.00,,CLR,0.00,VWS V13.01,2013-03-01 04:58:00,
2013-02-28 21:03:00,59.0,25.1,30.17,ENE,69,0.0,3.0,27,0.00,,CLR,0.00,VWS V13.01,2013-03-01 05:03:00,
2013-02-28 21:08:00,59.2,24.4,30.17,ENE,69,1.0,3.0,26,0.00,,CLR,0.00,VWS V13.01,2013-03-01 05:08:00,
2013-02-28 21:13:00,59.7,24.8,30.17,ENE,69,0.0,1.0,26,0.00,,CLR,0.00,VWS V13.01,2013-03-01 05:13:00,
2013-02-28 21:18:00,59.8,24.9,30.17,ENE,69,0.0,1.0,26,0.00,,CLR,0.00,VWS V13.01,2013-03-01 05:18:00,
2013-02-28 21:23:00,60.0,25.0,30.17,ENE,69,0.0,2.0,26,0.00,,CLR,0.00,VWS V13.01,2013-03-01 05:23:00,
2013-02-28 21:28:00,60.0,23.1,30.17,ENE,69,0.0,2.0,24,0.00,,CLR,0.00,VWS V13.01,2013-03-01 05:28:00,
2013-02-28 21:33:00,60.1,23.2,30.17,ENE,69,0.0,2.0,24,0.00,,CLR,0.00,VWS V13.01,2013-03-01 05:33:00,
2013-02-28 21:38:00,60.1,23.2,30.17,East,101,0.0,2.0,24,0.00,,CLR,0.00,VWS V13.01,2013-03-01 05:38:00,
2013-02-28 21:43:00,60.1,22.2,30.17,East,101,0.0,1.0,23,0.00,,CLR,0.00,VWS V13.01,2013-03-01 05:43:00,
2013-02-28 21:48:00,60.2,22.3,30.17,East,101,0.0,1.0,23,0.00,,CLR,0.00,VWS V13.01,2013-03-01 05:48:00,
2013-02-28 21:53:00,60.6,21.6,30.17,ENE,61,0.0,4.0,22,0.00,,CLR,0.00,VWS V13.01,2013-03-01 05:53:00,
2013-02-28 21:58:00,61.0,23.0,30.17,ENE,75,0.0,4.0,23,0.00,,CLR,0.00,VWS V13.01,2013-03-01 05:58:00,
2013-02-28 22:03:00,60.7,21.7,30.17,SSE,157,0.0,4.0,22,0.00,,CLR,0.00,VWS V13.01,2013-03-01 06:03:00,
2013-02-28 22:08:00,60.4,21.4,30.17,SSE,155,0.0,0.0,22,0.00,,CLR,0.00,VWS V13.01,2013-03-01 06:08:00,
2013-02-28 22:13:00,60.4,21.4,30.17,SSE,155,0.0,2.0,22,0.00,,CLR,0.00,VWS V13.01,2013-03-01 06:13:00,
2013-02-28 22:18:00,60.4,20.3,30.17,NE,53,0.0,2.0,21,0.00,,CLR,0.00,VWS V13.01,2013-03-01 06:18:00,
2013-02-28 22:23:00,60.5,19.2,30.17,NE,54,1.0,2.0,20,0.00,,CLR,0.00,VWS V13.01,2013-03-01 06:23:00,
2013-02-28 22:28:00,60.9,20.7,30.17,ENE,71,0.0,2.0,21,0.00,,CLR,0.00,VWS V13.01,2013-03-01 06:28:00,
2013-02-28 22:33:00,60.8,20.6,30.17,ENE,72,0.0,2.0,21,0.00,,CLR,0.00,VWS V13.01,2013-03-01 06:33:00,
2013-02-28 22:38:00,60.4,21.4,30.17,East,93,0.0,0.0,22,0.00,,CLR,0.00,VWS V13.01,2013-03-01 06:38:00,
2013-02-28 22:43:00,60.0,20.0,30.17,SSW,209,0.0,1.0,21,0.00,,CLR,0.00,VWS V13.01,2013-03-01 06:43:00,
2013-02-28 22:48:00,59.5,21.7,30.17,ENE,60,0.0,2.0,23,0.00,,CLR,0.00,VWS V13.01,2013-03-01 06:48:00,
2013-02-28 22:53:00,59.1,22.4,30.17,ENE,60,0.0,2.0,24,0.00,,CLR,0.00,VWS V13.01,2013-03-01 06:53:00,
2013-02-28 22:58:00,58.9,20.1,30.17,ENE,60,0.0,2.0,22,0.00,,CLR,0.00,VWS V13.01,2013-03-01 06:58:00,
2013-02-28 23:03:00,58.7,21.0,30.17,ENE,60,0.0,2.0,23,0.00,,CLR,0.00,VWS V13.01,2013-03-01 07:03:00,
2013-02-28 23:08:00,58.5,20.9,30.17,ENE,60,1.0,1.0,23,0.00,,CLR,0.00,VWS V13.01,2013-03-01 07:08:00,
2013-02-28 23:13:00,58.8,21.1,30.17,East,88,0.0,2.0,23,0.00,,CLR,0.00,VWS V13.01,2013-03-01 07:13:00,
2013-02-28 23:18:00,58.8,21.1,30.17,East,88,0.0,2.0,23,0.00,,CLR,0.00,VWS V13.01,2013-03-01 07:18:00,
2013-02-28 23:23:00,58.8,21.1,30.17,East,94,0.0,2.0,23,0.00,,CLR,0.00,VWS V13.01,2013-03-01 07:23:00,
2013-02-28 23:28:00,58.7,21.0,30.17,East,94,0.0,2.0,23,0.00,,CLR,0.00,VWS V13.01,2013-03-01 07:28:00,
2013-02-28 23:33:00,58.6,20.9,30.17,East,94,0.0,2.0,23,0.00,,CLR,0.00,VWS V13.01,2013-03-01 07:33:00,
2013-02-28 23:38:00,58.6,20.9,30.17,East,82,0.0,2.0,23,0.00,,CLR,0.00,VWS V13.01,2013-03-01 07:38:00,
2013-02-28 23:43:00,58.5,20.9,30.17,ENE,67,0.0,3.0,23,0.00,,CLR,0.00,VWS V13.01,2013-03-01 07:43:00,
2013-02-28 23:48:00,58.4,21.8,30.17,SE,140,0.0,3.0,24,0.00,,CLR,0.00,VWS V13.01,2013-03-01 07:48:00,
2013-02-28 23:53:00,58.3,20.7,30.17,SE,142,0.0,3.0,23,0.00,,CLR,0.00,VWS V13.01,2013-03-01 07:53:00,
2013-02-28 23:58:00,58.2,21.6,30.17,SE,142,0.0,3.0,24,0.00,,CLR,0.00,VWS V13.01,2013-03-01 07:58:00,